Time;durP1;ratioP1;P1;durP2;ratioP2;P2;SDS_P1;SDS_P2;PMS_P1;PMS_P2;Temp;Humidity;BMP_temperature;BMP_pressure;BME280_temperature;BME280_humidity;BME280_pressure;Samples;Min_cycle;Max_cycle;Signal;HPM_P1;HPM_P2
2022/11/18 00:00:05;;;;;;;4.00;3.70;;;15.60;62.00;;;;;;4995733;28;20452;-79
2022/11/18 00:02:32;;;;;;;3.97;3.67;;;15.60;62.00;;;;;;4994542;28;20465;-78
2022/11/18 00:05:01;;;;;;;6.50;4.10;;;15.60;62.00;;;;;;4996437;28;20481;-78
2022/11/18 00:07:30;;;;;;;4.50;4.10;;;15.60;62.00;;;;;;4992567;28;20459;-78
2022/11/18 00:09:58;;;;;;;4.77;4.37;;;15.60;61.90;;;;;;4994707;28;20469;-79
2022/11/18 00:15:10;;;;;;;5.00;4.00;;;15.60;61.90;;;;;;4959717;28;20464;-78
2022/11/18 00:17:38;;;;;;;4.70;4.30;;;15.50;62.10;;;;;;4994253;28;20453;-78
2022/11/18 00:20:07;;;;;;;6.00;4.37;;;15.50;62.10;;;;;;4994477;28;20449;-78
2022/11/18 00:22:36;;;;;;;4.63;4.17;;;15.50;62.10;;;;;;4991188;28;20713;-77
2022/11/18 00:25:05;;;;;;;4.53;4.10;;;15.50;62.00;;;;;;4995050;28;20484;-78
2022/11/18 00:27:33;;;;;;;5.20;4.70;;;15.60;62.20;;;;;;4994083;28;20468;-77
2022/11/18 00:30:01;;;;;;;5.90;4.60;;;15.60;62.10;;;;;;4991758;28;20473;-78
2022/11/18 00:32:29;;;;;;;5.73;4.50;;;15.60;62.10;;;;;;4993533;28;20588;-77
2022/11/18 00:34:57;;;;;;;5.50;4.93;;;15.50;62.20;;;;;;4998552;28;20485;-77
2022/11/18 00:37:26;;;;;;;6.77;5.10;;;15.50;62.10;;;;;;5005553;28;20448;-77
2022/11/18 00:39:55;;;;;;;5.50;4.90;;;15.60;62.20;;;;;;5001176;28;20466;-78
2022/11/18 00:45:09;;;;;;;6.70;4.73;;;15.60;62.10;;;;;;4995097;28;20476;-78
2022/11/18 00:47:37;;;;;;;6.47;5.03;;;15.50;62.20;;;;;;4991923;28;20490;-77
2022/11/18 00:50:06;;;;;;;6.43;5.50;;;15.60;62.30;;;;;;4993137;28;20473;-78
2022/11/18 00:52:34;;;;;;;6.53;5.40;;;15.60;62.30;;;;;;4994835;28;20473;-78
2022/11/18 00:55:04;;;;;;;6.20;5.00;;;15.50;62.10;;;;;;4994826;28;20481;-77
2022/11/18 00:57:32;;;;;;;6.63;5.10;;;15.50;62.10;;;;;;4991686;28;20446;-78
2022/11/18 01:00:00;;;;;;;5.27;4.77;;;15.50;62.20;;;;;;4994881;28;20460;-77
2022/11/18 01:02:28;;;;;;;6.03;5.40;;;15.50;62.20;;;;;;4994442;28;20457;-77
2022/11/18 01:04:56;;;;;;;7.07;5.13;;;15.50;62.20;;;;;;4988402;28;20481;-76
2022/11/18 01:07:24;;;;;;;6.63;5.33;;;15.50;62.40;;;;;;4995675;28;20453;-77
2022/11/18 01:09:53;;;;;;;7.30;6.00;;;15.50;62.20;;;;;;4991965;28;20488;-77
2022/11/18 01:15:09;;;;;;;8.70;5.90;;;15.50;62.20;;;;;;5010416;28;20479;-77
2022/11/18 01:17:36;;;;;;;7.43;5.83;;;15.50;62.10;;;;;;5014120;28;20444;-77
2022/11/18 01:20:06;;;;;;;10.20;5.93;;;15.50;62.30;;;;;;5014890;28;20467;-78
2022/11/18 01:22:34;;;;;;;6.67;5.73;;;15.50;62.30;;;;;;5016064;28;20451;-78
2022/11/18 01:25:01;;;;;;;10.50;5.80;;;15.50;62.20;;;;;;5009923;28;20509;-77
2022/11/18 01:27:31;;;;;;;7.60;6.73;;;15.50;62.30;;;;;;5005129;28;20449;-78
2022/11/18 01:29:59;;;;;;;12.07;7.43;;;15.50;62.30;;;;;;5002540;28;20468;-78
2022/11/18 01:32:28;;;;;;;8.73;6.63;;;15.50;62.40;;;;;;5004822;28;20485;-78
2022/11/18 01:34:58;;;;;;;8.13;7.20;;;15.50;62.30;;;;;;5004932;28;20476;-78
2022/11/18 01:37:26;;;;;;;9.70;7.73;;;15.50;62.20;;;;;;5006943;28;20445;-77
2022/11/18 01:39:54;;;;;;;9.93;7.90;;;15.50;62.20;;;;;;5005717;28;20473;-77
2022/11/18 01:42:22;;;;;;;10.07;7.57;;;15.50;62.40;;;;;;5005541;28;21057;-78
2022/11/18 01:45:00;;;;;;;10.40;7.73;;;15.50;62.40;;;;;;5010819;28;20441;-77
2022/11/18 01:47:31;;;;;;;9.50;7.43;;;15.50;62.40;;;;;;5009003;28;20445;-77
2022/11/18 01:49:59;;;;;;;13.13;8.77;;;15.40;62.50;;;;;;5008104;28;20472;-77
2022/11/18 01:52:27;;;;;;;10.33;7.47;;;15.50;62.60;;;;;;5010927;28;20444;-78
2022/11/18 01:54:57;;;;;;;10.90;7.77;;;15.50;62.60;;;;;;5003717;28;20500;-77
2022/11/18 01:57:26;;;;;;;9.27;7.03;;;15.50;62.50;;;;;;5004538;28;20457;-77
2022/11/18 01:59:56;;;;;;;10.47;7.13;;;15.50;62.50;;;;;;5008159;28;20477;-77
2022/11/18 02:02:24;;;;;;;10.07;6.80;;;15.50;62.40;;;;;;5000888;28;20457;-77
2022/11/18 02:04:52;;;;;;;8.77;7.10;;;15.50;62.50;;;;;;5003447;28;20450;-77
2022/11/18 02:07:21;;;;;;;7.30;6.57;;;15.50;62.40;;;;;;5008263;28;20449;-78
2022/11/18 02:09:48;;;;;;;8.90;7.10;;;15.40;62.40;;;;;;5003417;28;20496;-77
2022/11/18 02:12:17;;;;;;;7.23;6.20;;;15.50;62.60;;;;;;4997840;28;20492;-78
2022/11/18 02:14:45;;;;;;;10.27;7.30;;;15.50;62.50;;;;;;5004807;28;20523;-77
2022/11/18 02:17:19;;;;;;;10.03;6.70;;;15.50;62.60;;;;;;5006570;28;20471;-77
2022/11/18 02:20:12;;;;;;;10.50;6.90;;;15.50;62.40;;;;;;5003318;28;20453;-78
2022/11/18 02:23:09;;;;;;;8.57;6.63;;;15.50;62.50;;;;;;5002509;28;20469;-77
2022/11/18 02:25:41;;;;;;;8.50;6.73;;;15.50;62.70;;;;;;5006106;28;20503;-78
2022/11/18 02:28:26;;;;;;;7.93;6.70;;;15.50;62.70;;;;;;5006365;28;20437;-77
2022/11/18 02:30:57;;;;;;;7.83;6.50;;;15.50;62.70;;;;;;5007472;28;20488;-78
2022/11/18 02:33:28;;;;;;;7.60;6.27;;;15.50;62.50;;;;;;4991086;28;20452;-78
2022/11/18 02:35:57;;;;;;;7.10;5.80;;;15.50;62.60;;;;;;4992437;28;20473;-78
2022/11/18 02:38:27;;;;;;;10.50;7.80;;;15.50;62.50;;;;;;4994009;28;20445;-78
2022/11/18 02:40:56;;;;;;;7.23;6.30;;;15.50;62.40;;;;;;4992567;28;20536;-79
2022/11/18 02:43:26;;;;;;;9.00;6.60;;;15.50;62.60;;;;;;4992010;28;20465;-78
2022/11/18 02:45:56;;;;;;;5.70;5.10;;;15.50;62.50;;;;;;5001102;28;20477;-78
2022/11/18 02:48:25;;;;;;;7.23;6.30;;;15.50;62.50;;;;;;5001860;28;20461;-78
2022/11/18 02:50:52;;;;;;;6.30;5.70;;;15.50;62.40;;;;;;5000082;28;20488;-78
2022/11/18 02:53:22;;;;;;;7.60;6.27;;;15.40;62.40;;;;;;5000994;28;20458;-78
2022/11/18 02:55:50;;;;;;;7.23;5.60;;;15.50;62.20;;;;;;5002111;28;20473;-78
2022/11/18 02:58:20;;;;;;;8.07;5.80;;;15.50;62.20;;;;;;5002872;28;20489;-78
2022/11/18 03:00:54;;;;;;;8.00;6.30;;;15.40;62.10;;;;;;5007038;28;20828;-79
2022/11/18 03:03:27;;;;;;;6.53;5.80;;;15.40;62.20;;;;;;5006501;28;20464;-79
2022/11/18 03:06:02;;;;;;;6.67;5.60;;;15.40;62.40;;;;;;5004599;28;20476;-79
2022/11/18 03:08:35;;;;;;;6.07;5.47;;;15.40;62.30;;;;;;4999929;28;20476;-79
2022/11/18 03:11:06;;;;;;;7.07;5.93;;;15.40;62.10;;;;;;5002738;28;20469;-80
2022/11/18 03:13:38;;;;;;;6.73;5.73;;;15.40;62.00;;;;;;5006181;28;20445;-80
2022/11/18 03:16:09;;;;;;;8.00;6.00;;;15.40;62.10;;;;;;5006964;28;20473;-79
2022/11/18 03:18:41;;;;;;;6.47;5.43;;;15.40;62.20;;;;;;5007238;28;20455;-80
2022/11/18 03:21:11;;;;;;;5.40;4.93;;;15.40;62.30;;;;;;5008152;28;20453;-79
2022/11/18 03:23:40;;;;;;;5.83;5.27;;;15.40;62.20;;;;;;5006078;28;20449;-80
2022/11/18 03:26:11;;;;;;;7.20;5.20;;;15.40;62.30;;;;;;5006774;28;20495;-79
2022/11/18 03:28:40;;;;;;;6.30;5.70;;;15.40;62.30;;;;;;5001912;28;20458;-80
2022/11/18 03:31:12;;;;;;;7.47;6.03;;;15.40;62.20;;;;;;4997892;28;20472;-80
2022/11/18 03:33:42;;;;;;;6.63;5.53;;;15.40;62.00;;;;;;5010112;28;20462;-80
2022/11/18 03:36:10;;;;;;;6.60;5.43;;;15.40;62.00;;;;;;5016832;28;20456;-79
2022/11/18 03:38:40;;;;;;;6.13;5.20;;;15.40;62.10;;;;;;5019017;28;20490;-79
2022/11/18 03:41:09;;;;;;;6.63;5.57;;;15.40;62.10;;;;;;5017993;28;20456;-79
2022/11/18 03:43:40;;;;;;;6.20;5.03;;;15.30;62.10;;;;;;5018736;28;20464;-79
2022/11/18 03:46:10;;;;;;;7.43;5.40;;;15.40;62.10;;;;;;5017724;28;20480;-79
2022/11/18 03:48:41;;;;;;;5.80;5.20;;;15.30;62.10;;;;;;5018322;28;20461;-78
2022/11/18 03:51:11;;;;;;;5.57;5.07;;;15.30;62.10;;;;;;5016423;28;20441;-79
2022/11/18 03:53:41;;;;;;;5.80;5.23;;;15.30;62.10;;;;;;5016851;28;20440;-78
2022/11/18 03:56:10;;;;;;;6.63;5.67;;;15.30;62.00;;;;;;5016968;28;20473;-78
2022/11/18 03:58:47;;;;;;;6.10;5.40;;;15.30;62.10;;;;;;5017222;28;20449;-78
2022/11/18 04:01:18;;;;;;;5.90;5.30;;;15.30;62.00;;;;;;5013144;28;20468;-78
2022/11/18 04:03:46;;;;;;;5.40;4.80;;;15.30;62.00;;;;;;5012863;28;20460;-78
2022/11/18 04:06:17;;;;;;;6.53;4.87;;;15.30;62.00;;;;;;5016010;28;20507;-79
2022/11/18 04:08:45;;;;;;;5.20;4.70;;;15.40;62.00;;;;;;5011919;28;20454;-79
2022/11/18 04:12:01;;;;;;;6.03;5.43;;;15.30;62.00;;;;;;5008287;28;20446;-79
2022/11/18 04:14:03;;;;;;;6.00;5.30;;;15.30;61.90;;;;;;4995601;28;20484;-79
2022/11/18 04:16:38;;;;;;;6.40;5.30;;;15.30;62.00;;;;;;4999368;28;20477;-80
2022/11/18 04:19:06;;;;;;;5.27;4.77;;;15.30;62.00;;;;;;5015272;28;20451;-79
2022/11/18 04:21:34;;;;;;;5.70;5.20;;;15.30;61.80;;;;;;5017507;28;20443;-79
2022/11/18 04:24:02;;;;;;;6.13;4.90;;;15.30;61.90;;;;;;5015931;28;20449;-78
2022/11/18 04:26:31;;;;;;;5.50;5.00;;;15.30;62.00;;;;;;5016468;28;20452;-80
2022/11/18 04:28:59;;;;;;;6.80;5.63;;;15.30;62.00;;;;;;5014957;28;20442;-79
2022/11/18 04:31:27;;;;;;;5.17;4.50;;;15.30;62.00;;;;;;5014894;28;20500;-79
2022/11/18 04:33:56;;;;;;;5.57;4.97;;;15.30;61.90;;;;;;5013423;28;20459;-78
2022/11/18 04:36:25;;;;;;;5.40;4.90;;;15.30;62.70;;;;;;5017210;28;20469;-79
2022/11/18 04:38:53;;;;;;;6.27;5.60;;;15.30;61.70;;;;;;5017668;28;20504;-79
2022/11/18 04:41:54;;;;;;;5.53;5.03;;;15.30;62.00;;;;;;5017486;28;20449;-79
2022/11/18 04:44:11;;;;;;;6.97;5.80;;;15.30;62.00;;;;;;5016437;28;20456;-79
2022/11/18 04:46:41;;;;;;;7.53;5.27;;;15.30;61.80;;;;;;5014943;28;20473;-79
2022/11/18 04:49:12;;;;;;;5.20;4.70;;;15.20;62.10;;;;;;5013667;28;20556;-79
2022/11/18 04:51:40;;;;;;;7.00;5.70;;;15.30;62.00;;;;;;5013949;28;20449;-79
2022/11/18 04:54:09;;;;;;;5.40;4.60;;;15.20;62.00;;;;;;5014302;28;20465;-79
2022/11/18 04:56:37;;;;;;;5.70;5.10;;;15.20;61.90;;;;;;5006960;28;20480;-79
2022/11/18 04:59:12;;;;;;;5.40;4.90;;;15.20;61.80;;;;;;4995596;28;20461;-79
2022/11/18 05:01:40;;;;;;;4.50;4.10;;;15.20;61.80;;;;;;4990495;28;20460;-79
2022/11/18 05:04:13;;;;;;;5.27;4.77;;;15.30;61.90;;;;;;4993309;28;20464;-79
2022/11/18 05:06:41;;;;;;;5.33;4.43;;;15.20;61.70;;;;;;4996608;28;20480;-80
2022/11/18 05:09:10;;;;;;;5.03;4.53;;;15.20;61.90;;;;;;4994076;28;20463;-79
2022/11/18 05:14:25;;;;;;;4.70;4.30;;;15.20;61.90;;;;;;4995163;28;20468;-79
2022/11/18 05:16:53;;;;;;;4.70;4.30;;;15.20;61.80;;;;;;4995729;28;20480;-79
2022/11/18 05:19:23;;;;;;;6.33;4.70;;;15.20;61.90;;;;;;4990321;28;20457;-79
2022/11/18 05:21:51;;;;;;;5.30;4.80;;;15.20;61.70;;;;;;4991229;28;20476;-78
2022/11/18 05:24:19;;;;;;;6.70;5.07;;;15.20;61.70;;;;;;4993148;28;20473;-79
2022/11/18 05:26:47;;;;;;;6.00;5.20;;;15.20;61.80;;;;;;4995745;28;20486;-80
2022/11/18 05:29:15;;;;;;;5.10;4.60;;;15.20;61.80;;;;;;4998245;28;20453;-79
2022/11/18 05:31:43;;;;;;;5.30;4.80;;;15.20;61.90;;;;;;4994889;28;20488;-80
2022/11/18 05:34:12;;;;;;;4.83;4.43;;;15.20;61.90;;;;;;4994504;28;20530;-80
2022/11/18 05:36:41;;;;;;;5.77;5.00;;;15.20;61.70;;;;;;4993212;28;20473;-79
2022/11/18 05:39:09;;;;;;;5.27;4.77;;;15.20;61.80;;;;;;4995452;28;20457;-80
2022/11/18 05:44:23;;;;;;;5.07;4.67;;;15.10;61.80;;;;;;4994888;28;20445;-80
2022/11/18 05:46:51;;;;;;;5.10;4.50;;;15.10;61.60;;;;;;4997608;28;20473;-80
2022/11/18 05:49:19;;;;;;;5.00;4.33;;;15.10;61.50;;;;;;4997223;28;20453;-80
2022/11/18 05:51:49;;;;;;;4.77;4.37;;;15.10;61.80;;;;;;4996504;28;20464;-79
2022/11/18 05:54:16;;;;;;;7.20;5.47;;;15.10;61.60;;;;;;4991183;28;20481;-78
2022/11/18 05:56:44;;;;;;;6.03;4.63;;;15.10;61.50;;;;;;4993758;28;20477;-78
2022/11/18 05:59:12;;;;;;;5.13;4.63;;;15.10;61.60;;;;;;4991942;28;20457;-78
2022/11/18 06:01:42;;;;;;;5.00;4.50;;;15.10;61.50;;;;;;4988355;28;20476;-78
2022/11/18 06:04:14;;;;;;;5.50;5.00;;;15.10;61.50;;;;;;4991783;28;20450;-78
2022/11/18 06:06:42;;;;;;;6.77;5.00;;;15.10;61.40;;;;;;4987571;28;20473;-78
2022/11/18 06:09:11;;;;;;;5.40;4.90;;;15.10;61.40;;;;;;4992082;28;20479;-79
2022/11/18 06:11:41;;;;;;;5.20;4.70;;;15.10;61.40;;;;;;4992503;28;20554;-78
2022/11/18 06:14:10;;;;;;;5.53;5.00;;;15.10;61.40;;;;;;4991493;28;20479;-78
2022/11/18 06:16:38;;;;;;;5.47;4.97;;;15.10;61.40;;;;;;4992959;28;20508;-78
2022/11/18 06:19:08;;;;;;;5.47;4.93;;;15.10;61.20;;;;;;4991069;28;20453;-77
2022/11/18 06:21:36;;;;;;;5.00;4.50;;;15.10;61.20;;;;;;4992343;28;20457;-78
2022/11/18 06:24:06;;;;;;;4.90;4.50;;;15.10;61.30;;;;;;4991141;28;20458;-76
2022/11/18 06:26:35;;;;;;;5.40;4.80;;;15.10;61.20;;;;;;4993399;28;20473;-76
2022/11/18 06:29:03;;;;;;;5.53;4.93;;;15.00;61.30;;;;;;4989328;28;20460;-77
2022/11/18 06:31:31;;;;;;;5.30;4.80;;;15.00;61.20;;;;;;4990144;28;20496;-77
2022/11/18 06:33:59;;;;;;;5.60;5.00;;;15.00;61.10;;;;;;4992488;28;20472;-78
2022/11/18 06:36:27;;;;;;;6.03;5.13;;;15.00;61.10;;;;;;4991920;28;20476;-76
2022/11/18 06:38:56;;;;;;;5.80;4.80;;;15.00;61.10;;;;;;4992788;28;20453;-77
2022/11/18 06:41:24;;;;;;;5.20;4.70;;;15.00;61.10;;;;;;4991466;28;20465;-78
2022/11/18 06:43:53;;;;;;;5.03;4.53;;;14.90;61.20;;;;;;4991585;28;20464;-78
2022/11/18 06:49:06;;;;;;;7.10;5.80;;;15.00;61.10;;;;;;4996434;28;20421;-77
2022/11/18 06:51:34;;;;;;;5.17;4.67;;;15.00;61.20;;;;;;4994996;28;20456;-78
2022/11/18 06:54:02;;;;;;;6.70;5.20;;;14.90;61.20;;;;;;4994502;28;20477;-78
2022/11/18 06:56:37;;;;;;;5.97;4.87;;;15.00;61.20;;;;;;4994900;28;20480;-78
2022/11/18 06:59:06;;;;;;;5.57;4.87;;;14.90;60.90;;;;;;4994646;28;20507;-78
2022/11/18 07:01:35;;;;;;;6.33;5.37;;;15.00;61.00;;;;;;4996410;28;20453;-78
2022/11/18 07:04:03;;;;;;;5.63;5.03;;;14.90;61.00;;;;;;4993691;28;20449;-78
2022/11/18 07:06:33;;;;;;;5.30;4.80;;;14.90;61.10;;;;;;4995887;28;20484;-78
2022/11/18 07:09:01;;;;;;;5.43;4.87;;;14.90;61.10;;;;;;4993941;28;20461;-77
2022/11/18 07:11:28;;;;;;;4.83;4.43;;;14.90;61.10;;;;;;4994634;28;20460;-78
2022/11/18 07:13:57;;;;;;;4.90;4.50;;;14.90;60.90;;;;;;4994833;28;20484;-78
2022/11/18 07:16:26;;;;;;;7.70;5.30;;;14.90;61.70;;;;;;4995074;28;20472;-77
2022/11/18 07:18:55;;;;;;;5.10;4.60;;;14.90;61.20;;;;;;4996924;28;20479;-78
2022/11/18 07:21:24;;;;;;;5.10;4.60;;;14.90;61.00;;;;;;4994155;28;20461;-78
2022/11/18 07:23:53;;;;;;;5.30;4.80;;;14.90;60.90;;;;;;4994193;28;20484;-78
2022/11/18 07:26:22;;;;;;;6.37;5.50;;;14.90;60.90;;;;;;4993494;28;20473;-78
2022/11/18 07:28:49;;;;;;;6.13;4.90;;;14.90;60.90;;;;;;4995807;28;20449;-78
2022/11/18 07:31:19;;;;;;;7.27;5.70;;;14.90;60.80;;;;;;4992917;28;20476;-78
2022/11/18 07:33:48;;;;;;;5.93;5.33;;;14.90;60.80;;;;;;4992025;28;20480;-78
2022/11/18 07:36:17;;;;;;;5.57;4.90;;;14.80;60.90;;;;;;4994317;28;20477;-78
2022/11/18 07:38:45;;;;;;;5.77;5.00;;;14.90;61.00;;;;;;4993952;28;20457;-77
2022/11/18 07:41:14;;;;;;;6.13;5.30;;;14.80;61.00;;;;;;4994000;28;20471;-78
2022/11/18 07:43:42;;;;;;;6.30;4.70;;;14.90;61.00;;;;;;4993656;28;20457;-77
2022/11/18 07:46:14;;;;;;;5.47;4.90;;;14.90;60.80;;;;;;4993558;28;20488;-78
2022/11/18 07:48:43;;;;;;;6.73;5.40;;;14.90;60.80;;;;;;4994823;28;20458;-78
2022/11/18 07:51:13;;;;;;;5.50;4.70;;;14.80;60.80;;;;;;4991188;28;20457;-79
2022/11/18 07:53:41;;;;;;;6.07;5.10;;;14.80;60.90;;;;;;4989462;28;20531;-78
2022/11/18 07:56:09;;;;;;;5.93;5.30;;;14.90;61.10;;;;;;4993955;28;20481;-78
2022/11/18 07:58:38;;;;;;;5.83;5.00;;;14.90;61.00;;;;;;4993352;28;20457;-78
2022/11/18 08:01:09;;;;;;;7.23;5.00;;;14.90;60.80;;;;;;4992915;28;20460;-78
2022/11/18 08:03:37;;;;;;;5.73;5.13;;;14.80;60.90;;;;;;4990821;28;20461;-78
2022/11/18 08:06:07;;;;;;;5.37;4.87;;;14.80;60.90;;;;;;4993876;28;20473;-78
2022/11/18 08:08:36;;;;;;;6.73;5.50;;;14.90;61.10;;;;;;4994948;28;20448;-78
2022/11/18 08:11:04;;;;;;;5.70;5.17;;;14.90;61.00;;;;;;4992047;28;20512;-78
2022/11/18 08:13:33;;;;;;;5.93;5.03;;;14.90;61.00;;;;;;4991871;28;20477;-79
2022/11/18 08:16:01;;;;;;;5.73;5.13;;;14.90;60.90;;;;;;4995876;28;20504;-78
2022/11/18 08:18:29;;;;;;;5.43;4.90;;;14.80;60.90;;;;;;4995185;28;20449;-77
2022/11/18 08:21:01;;;;;;;5.93;5.07;;;14.90;60.80;;;;;;4992565;28;20457;-77
2022/11/18 08:23:30;;;;;;;7.10;5.77;;;14.90;60.90;;;;;;4992285;28;20453;-77
2022/11/18 08:26:04;;;;;;;6.20;5.60;;;14.90;60.90;;;;;;4984256;28;20474;-77
2022/11/18 08:28:33;;;;;;;5.43;4.90;;;14.90;60.90;;;;;;4987110;28;20441;-77
2022/11/18 08:31:01;;;;;;;5.70;4.53;;;14.90;60.90;;;;;;4984333;28;20545;-76
2022/11/18 08:33:29;;;;;;;5.80;5.17;;;14.90;61.00;;;;;;4988539;28;20454;-77
2022/11/18 08:35:57;;;;;;;6.30;5.20;;;14.90;60.90;;;;;;4991523;28;20469;-79
2022/11/18 08:38:25;;;;;;;5.10;4.60;;;14.90;60.70;;;;;;4989160;28;20458;-78
2022/11/18 08:40:53;;;;;;;5.80;5.03;;;15.00;61.00;;;;;;4994401;28;20859;-79
2022/11/18 08:43:22;;;;;;;6.17;5.40;;;14.90;60.70;;;;;;4990710;28;20501;-77
2022/11/18 08:45:50;;;;;;;6.17;5.43;;;14.90;60.80;;;;;;4990447;28;20488;-78
2022/11/18 08:48:18;;;;;;;6.03;5.43;;;14.90;60.70;;;;;;4994434;28;20458;-76
2022/11/18 08:50:46;;;;;;;5.80;5.20;;;14.90;60.80;;;;;;4986902;28;20454;-78
2022/11/18 08:53:15;;;;;;;5.47;4.97;;;14.90;60.80;;;;;;4984430;28;20481;-78
2022/11/18 08:55:43;;;;;;;6.87;5.67;;;15.00;61.00;;;;;;4982266;28;20481;-78
2022/11/18 08:58:11;;;;;;;6.40;5.47;;;14.90;60.70;;;;;;4991855;28;20469;-77
2022/11/18 09:00:41;;;;;;;7.23;5.60;;;14.90;60.90;;;;;;4987476;28;20457;-78
2022/11/18 09:03:11;;;;;;;7.70;5.77;;;14.90;60.90;;;;;;4983833;28;20458;-78
2022/11/18 09:05:39;;;;;;;7.23;5.13;;;14.90;61.00;;;;;;4974521;28;20459;-77
2022/11/18 09:08:07;;;;;;;7.13;5.73;;;14.90;60.80;;;;;;4974925;28;20458;-76
2022/11/18 09:10:37;;;;;;;6.30;4.97;;;14.90;60.90;;;;;;4985160;28;20453;-76
2022/11/18 09:13:04;;;;;;;5.93;5.17;;;14.90;60.90;;;;;;4981575;28;20526;-75
2022/11/18 09:15:54;;;;;;;6.43;5.33;;;14.90;60.70;;;;;;4974127;28;20474;-78
2022/11/18 09:18:21;;;;;;;6.40;5.80;;;14.90;60.90;;;;;;4985436;28;20446;-78
2022/11/18 09:20:54;;;;;;;7.27;5.83;;;14.90;60.80;;;;;;4994382;28;20445;-78
2022/11/18 09:23:22;;;;;;;6.03;5.43;;;14.90;60.90;;;;;;4994815;28;20445;-78
2022/11/18 09:25:57;;;;;;;6.37;5.63;;;14.90;60.90;;;;;;4994268;28;20496;-78
2022/11/18 09:28:26;;;;;;;8.13;5.83;;;14.90;60.70;;;;;;4989653;28;20457;-78
2022/11/18 09:30:56;;;;;;;6.83;5.70;;;14.90;60.80;;;;;;4993966;28;20536;-78
2022/11/18 09:33:24;;;;;;;5.87;5.27;;;14.90;60.70;;;;;;4993551;28;20445;-77
2022/11/18 09:35:52;;;;;;;7.63;6.00;;;14.90;60.60;;;;;;4992592;28;20485;-77
2022/11/18 09:38:20;;;;;;;7.60;6.20;;;14.90;60.40;;;;;;4993418;28;20458;-77
2022/11/18 09:40:52;;;;;;;6.57;5.60;;;14.90;60.70;;;;;;4993721;28;20484;-77
2022/11/18 09:43:23;;;;;;;7.97;5.90;;;14.90;60.60;;;;;;4993208;28;20453;-78
2022/11/18 09:45:53;;;;;;;7.00;6.30;;;14.90;60.50;;;;;;4995028;28;20480;-77
2022/11/18 09:49:11;;;;;;;8.20;6.40;;;14.90;60.60;;;;;;4996424;28;20446;-77
2022/11/18 09:51:12;;;;;;;8.10;6.20;;;14.90;60.60;;;;;;4993364;28;20454;-76
2022/11/18 09:53:42;;;;;;;6.83;6.13;;;14.90;60.60;;;;;;5013089;28;20463;-76
2022/11/18 09:56:12;;;;;;;7.83;6.37;;;14.90;60.60;;;;;;5004109;28;20483;-77
2022/11/18 09:58:41;;;;;;;12.20;5.80;;;14.90;60.60;;;;;;4992707;28;20453;-77
2022/11/18 10:01:11;;;;;;;8.03;7.00;;;14.90;60.60;;;;;;4993028;28;20449;-78
2022/11/18 10:03:41;;;;;;;8.37;6.50;;;14.90;60.50;;;;;;4997562;28;20449;-76
2022/11/18 10:06:16;;;;;;;7.27;6.30;;;14.90;60.40;;;;;;4993953;28;20465;-78
2022/11/18 10:08:58;;;;;;;15.10;8.47;;;14.90;60.40;;;;;;4994234;28;20473;-77
2022/11/18 10:11:27;;;;;;;27.07;16.23;;;14.90;61.10;;;;;;4994258;28;20960;-77
2022/11/18 10:14:00;;;;;;;26.97;16.00;;;13.50;56.10;;;;;;4993352;28;20455;-80
2022/11/18 10:16:32;;;;;;;29.83;18.07;;;12.70;57.70;;;;;;4997471;28;20469;-78
2022/11/18 10:19:06;;;;;;;38.47;19.40;;;12.40;57.30;;;;;;4994411;28;20418;-78
2022/11/18 10:21:41;;;;;;;34.33;20.23;;;11.80;56.60;;;;;;4988234;28;20445;-77
2022/11/18 10:24:12;;;;;;;40.10;20.70;;;11.20;57.00;;;;;;4993158;28;20475;-76
2022/11/18 10:26:40;;;;;;;39.27;20.57;;;10.50;56.60;;;;;;4994752;28;20492;-78
2022/11/18 10:29:09;;;;;;;39.93;20.37;;;10.00;57.30;;;;;;4993513;28;20457;-77
2022/11/18 10:31:38;;;;;;;34.27;19.30;;;10.30;59.60;;;;;;4993910;28;20525;-77
2022/11/18 10:34:10;;;;;;;33.60;19.40;;;11.20;58.70;;;;;;4993907;28;20464;-77
2022/11/18 10:36:38;;;;;;;34.47;19.73;;;11.60;57.20;;;;;;5015495;28;20487;-78
2022/11/18 10:39:08;;;;;;;40.70;20.23;;;11.80;56.30;;;;;;5000120;28;20449;-78
2022/11/18 10:41:39;;;;;;;40.07;20.33;;;12.00;56.00;;;;;;4996255;28;20444;-79
2022/11/18 10:44:27;;;;;;;34.17;19.20;;;12.00;55.20;;;;;;4996610;28;20457;-78
2022/11/18 10:46:55;;;;;;;35.03;19.83;;;12.00;55.20;;;;;;4993324;28;20461;-76
2022/11/18 10:49:25;;;;;;;37.40;20.23;;;12.10;55.20;;;;;;5005664;28;20464;-78
2022/11/18 10:52:06;;;;;;;33.77;18.80;;;12.30;54.90;;;;;;4993196;28;20449;-78
2022/11/18 10:54:34;;;;;;;34.10;19.70;;;12.30;54.50;;;;;;5005760;28;20443;-78
2022/11/18 10:57:04;;;;;;;34.50;18.93;;;12.20;54.20;;;;;;5013816;28;20507;-79
2022/11/18 10:59:34;;;;;;;47.03;24.03;;;12.20;54.40;;;;;;5007566;28;20481;-80
2022/11/18 11:02:04;;;;;;;39.57;21.30;;;12.20;53.80;;;;;;4993549;28;20449;-78
2022/11/18 11:04:38;;;;;;;34.03;19.93;;;12.10;54.10;;;;;;4988529;28;20746;-78
2022/11/18 11:07:15;;;;;;;37.10;17.87;;;12.00;54.10;;;;;;4994242;28;20449;-78
2022/11/18 11:09:44;;;;;;;41.70;19.83;;;12.00;54.30;;;;;;4989200;28;20504;-78
2022/11/18 11:12:13;;;;;;;37.47;21.20;;;12.00;54.00;;;;;;4984908;28;20451;-78
2022/11/18 11:14:46;;;;;;;34.10;19.50;;;12.10;54.30;;;;;;4984288;28;20463;-79
2022/11/18 11:17:15;;;;;;;33.30;19.27;;;11.90;53.80;;;;;;4990742;28;20472;-79
2022/11/18 11:19:49;;;;;;;31.67;18.10;;;11.90;53.80;;;;;;4991069;28;20469;-79
2022/11/18 11:22:17;;;;;;;31.80;18.17;;;11.80;53.80;;;;;;4993015;28;20460;-79
2022/11/18 11:24:45;;;;;;;32.47;18.10;;;11.80;53.50;;;;;;4991951;28;20461;-79
2022/11/18 11:27:28;;;;;;;33.20;17.90;;;11.90;53.50;;;;;;4993993;28;20455;-79
2022/11/18 11:30:18;;;;;;;31.03;18.30;;;11.70;53.50;;;;;;4993798;28;20511;-78
2022/11/18 11:33:08;;;;;;;31.90;17.57;;;11.80;53.80;;;;;;4991021;28;20506;-80
2022/11/18 11:35:42;;;;;;;34.10;17.63;;;11.80;52.90;;;;;;4990678;28;20488;-79
2022/11/18 11:38:13;;;;;;;29.50;15.73;;;11.80;53.10;;;;;;4994057;28;20472;-78
2022/11/18 11:40:42;;;;;;;30.23;17.30;;;11.80;53.10;;;;;;4993546;28;20462;-79
2022/11/18 11:43:24;;;;;;;30.77;16.73;;;11.70;53.30;;;;;;4994276;28;20484;-79
2022/11/18 11:46:07;;;;;;;27.80;17.10;;;11.80;53.30;;;;;;4992595;28;20481;-79
2022/11/18 11:48:40;;;;;;;28.83;15.77;;;11.80;53.00;;;;;;4991813;28;20471;-79
2022/11/18 11:51:14;;;;;;;31.43;17.17;;;11.80;53.00;;;;;;4989400;28;20458;-79
2022/11/18 11:53:51;;;;;;;27.67;16.50;;;11.60;53.00;;;;;;4992397;28;20449;-80
2022/11/18 11:56:21;;;;;;;28.63;16.67;;;11.70;53.50;;;;;;4992531;28;20487;-78
2022/11/18 11:59:23;;;;;;;28.70;17.10;;;11.80;53.30;;;;;;4993836;28;20463;-77
2022/11/18 12:01:59;;;;;;;30.00;16.60;;;11.90;53.20;;;;;;4933409;29;20470;-79
2022/11/18 12:04:40;;;;;;;30.27;17.60;;;11.80;52.90;;;;;;4982867;28;20460;-78
2022/11/18 12:07:14;;;;;;;29.60;18.03;;;11.80;52.70;;;;;;4991099;28;20456;-79
2022/11/18 12:09:52;;;;;;;29.90;17.30;;;11.70;52.90;;;;;;4993291;28;20464;-76
2022/11/18 12:15:19;;;;;;;23.93;14.93;;;11.80;53.80;;;;;;4990635;28;20500;-79
2022/11/18 12:17:52;;;;;;;24.30;15.30;;;11.80;52.60;;;;;;4995294;28;20843;-79
2022/11/18 12:20:37;;;;;;;21.90;14.07;;;11.70;52.60;;;;;;4993180;28;20462;-79
2022/11/18 12:23:17;;;;;;;24.97;14.67;;;11.70;52.60;;;;;;4990257;28;20464;-79
2022/11/18 12:25:59;;;;;;;23.60;14.10;;;11.80;52.80;;;;;;4993688;28;20481;-79
2022/11/18 12:28:30;;;;;;;23.77;14.90;;;11.70;52.60;;;;;;4992574;28;20453;-78
2022/11/18 12:31:27;;;;;;;21.30;13.60;;;11.70;52.60;;;;;;4991581;28;20460;-78
2022/11/18 12:33:55;;;;;;;22.83;13.60;;;11.70;52.60;;;;;;4993230;28;20456;-77
2022/11/18 12:36:26;;;;;;;20.47;12.97;;;11.70;52.60;;;;;;4986280;28;20477;-78
2022/11/18 12:38:55;;;;;;;22.10;13.70;;;11.80;53.10;;;;;;4992977;28;20456;-78
2022/11/18 12:44:38;;;;;;;25.97;15.13;;;12.00;52.60;;;;;;4987435;28;20454;-78
2022/11/18 12:47:06;;;;;;;26.60;15.47;;;12.00;52.60;;;;;;4995552;28;20455;-78
2022/11/18 12:50:11;;;;;;;24.63;14.90;;;11.80;52.80;;;;;;4990327;28;20452;-79
2022/11/18 12:52:49;;;;;;;24.60;15.17;;;12.10;53.30;;;;;;4993486;28;20455;-79
2022/11/18 12:55:25;;;;;;;21.20;14.40;;;11.80;52.20;;;;;;4994207;28;20484;-79
2022/11/18 12:57:53;;;;;;;27.00;14.00;;;11.80;52.60;;;;;;4991737;28;20468;-79
2022/11/18 13:00:50;;;;;;;22.80;14.57;;;11.70;52.40;;;;;;4987367;28;20461;-80
2022/11/18 13:03:27;;;;;;;19.50;13.43;;;11.70;52.20;;;;;;4991570;28;20459;-80
2022/11/18 13:06:00;;;;;;;23.50;13.67;;;11.70;52.40;;;;;;4994653;28;20475;-79
2022/11/18 13:08:28;;;;;;;22.83;13.63;;;11.70;52.40;;;;;;4993910;28;20472;-81
2022/11/18 13:13:45;;;;;;;21.70;13.40;;;11.80;52.20;;;;;;4993013;28;20513;-80
2022/11/18 13:19:05;;;;;;;23.13;12.70;;;11.60;52.10;;;;;;4988480;28;20453;-81
2022/11/18 13:24:19;;;;;;;19.40;12.93;;;11.90;52.40;;;;;;4997587;28;20457;-81
2022/11/18 13:26:53;;;;;;;21.83;13.97;;;11.90;52.50;;;;;;4999780;28;20477;-81
2022/11/18 13:29:33;;;;;;;18.83;12.80;;;12.00;51.80;;;;;;4995275;28;20547;-80